sensor_id;sensor_type;location;lat;lon;timestamp;P1;durP1;ratioP1;P2;durP2;ratioP2
21299;SDS011;10809;49.476;11.016;2022-10-16T05:12:26;1.20;;;0.70;;
21299;SDS011;10809;49.476;11.016;2022-10-16T05:14:56;0.95;;;0.90;;
21299;SDS011;10809;49.476;11.016;2022-10-16T05:17:28;0.90;;;0.90;;
21299;SDS011;10809;49.476;11.016;2022-10-16T05:19:59;2.23;;;0.60;;
21299;SDS011;10809;49.476;11.016;2022-10-16T05:22:29;2.25;;;1.00;;
21299;SDS011;10809;49.476;11.016;2022-10-16T05:25:00;0.60;;;0.60;;
21299;SDS011;10809;49.476;11.016;2022-10-16T05:27:30;1.10;;;0.53;;
21299;SDS011;10809;49.476;11.016;2022-10-16T05:30:00;0.80;;;0.80;;
21299;SDS011;10809;49.476;11.016;2022-10-16T05:32:31;3.13;;;0.60;;
21299;SDS011;10809;49.476;11.016;2022-10-16T05:35:01;3.33;;;0.83;;
21299;SDS011;10809;49.476;11.016;2022-10-16T05:37:32;0.60;;;0.50;;
21299;SDS011;10809;49.476;11.016;2022-10-16T05:40:03;1.50;;;0.80;;
21299;SDS011;10809;49.476;11.016;2022-10-16T05:42:34;0.33;;;0.33;;
21299;SDS011;10809;49.476;11.016;2022-10-16T05:45:05;1.20;;;0.80;;
21299;SDS011;10809;49.476;11.016;2022-10-16T05:47:37;1.17;;;0.87;;
21299;SDS011;10809;49.476;11.016;2022-10-16T05:50:08;0.73;;;0.73;;
21299;SDS011;10809;49.476;11.016;2022-10-16T05:52:39;1.00;;;0.77;;
21299;SDS011;10809;49.476;11.016;2022-10-16T05:55:09;0.60;;;0.60;;
21299;SDS011;10809;49.476;11.016;2022-10-16T05:57:40;0.65;;;0.65;;
21299;SDS011;10809;49.476;11.016;2022-10-16T06:00:10;0.53;;;0.53;;
21299;SDS011;10809;49.476;11.016;2022-10-16T06:02:44;1.23;;;1.00;;
21299;SDS011;10809;49.476;11.016;2022-10-16T06:05:14;0.93;;;0.77;;
21299;SDS011;10809;49.476;11.016;2022-10-16T06:07:44;2.73;;;0.60;;
21299;SDS011;10809;49.476;11.016;2022-10-16T06:10:15;5.13;;;0.98;;
21299;SDS011;10809;49.476;11.016;2022-10-16T06:12:45;1.03;;;0.60;;
21299;SDS011;10809;49.476;11.016;2022-10-16T06:15:15;1.70;;;0.93;;
21299;SDS011;10809;49.476;11.016;2022-10-16T06:17:46;1.63;;;1.42;;
21299;SDS011;10809;49.476;11.016;2022-10-16T06:20:16;3.33;;;0.80;;
21299;SDS011;10809;49.476;11.016;2022-10-16T06:22:46;1.58;;;0.70;;
21299;SDS011;10809;49.476;11.016;2022-10-16T06:25:17;1.15;;;0.65;;
21299;SDS011;10809;49.476;11.016;2022-10-16T06:27:47;5.68;;;0.82;;
21299;SDS011;10809;49.476;11.016;2022-10-16T06:30:17;4.85;;;0.80;;
21299;SDS011;10809;49.476;11.016;2022-10-16T06:32:48;0.60;;;0.60;;
21299;SDS011;10809;49.476;11.016;2022-10-16T06:35:18;0.80;;;0.80;;
21299;SDS011;10809;49.476;11.016;2022-10-16T06:37:49;0.95;;;0.55;;
21299;SDS011;10809;49.476;11.016;2022-10-16T06:40:19;0.77;;;0.77;;
21299;SDS011;10809;49.476;11.016;2022-10-16T06:42:50;2.45;;;0.63;;
21299;SDS011;10809;49.476;11.016;2022-10-16T06:45:21;1.70;;;0.90;;
21299;SDS011;10809;49.476;11.016;2022-10-16T06:47:52;1.48;;;0.70;;
21299;SDS011;10809;49.476;11.016;2022-10-16T06:50:22;2.45;;;0.90;;
21299;SDS011;10809;49.476;11.016;2022-10-16T06:52:52;1.88;;;1.38;;
21299;SDS011;10809;49.476;11.016;2022-10-16T06:55:23;0.90;;;0.80;;
21299;SDS011;10809;49.476;11.016;2022-10-16T06:57:54;1.15;;;1.08;;
21299;SDS011;10809;49.476;11.016;2022-10-16T07:00:24;1.83;;;0.98;;
21299;SDS011;10809;49.476;11.016;2022-10-16T07:02:55;1.20;;;1.10;;
21299;SDS011;10809;49.476;11.016;2022-10-16T07:05:25;2.55;;;1.50;;
21299;SDS011;10809;49.476;11.016;2022-10-16T07:07:55;3.03;;;0.73;;
21299;SDS011;10809;49.476;11.016;2022-10-16T07:10:26;1.13;;;1.02;;
21299;SDS011;10809;49.476;11.016;2022-10-16T07:12:56;3.80;;;0.50;;
21299;SDS011;10809;49.476;11.016;2022-10-16T07:15:27;0.68;;;0.68;;
21299;SDS011;10809;49.476;11.016;2022-10-16T07:17:57;4.63;;;0.80;;
21299;SDS011;10809;49.476;11.016;2022-10-16T07:20:27;6.22;;;1.05;;
21299;SDS011;10809;49.476;11.016;2022-10-16T07:22:58;0.63;;;0.63;;
21299;SDS011;10809;49.476;11.016;2022-10-16T07:25:28;2.67;;;1.00;;
21299;SDS011;10809;49.476;11.016;2022-10-16T07:27:58;2.75;;;2.33;;
21299;SDS011;10809;49.476;11.016;2022-10-16T07:30:29;10.15;;;4.72;;
21299;SDS011;10809;49.476;11.016;2022-10-16T07:32:59;9.23;;;5.25;;
21299;SDS011;10809;49.476;11.016;2022-10-16T07:35:30;6.10;;;3.45;;
21299;SDS011;10809;49.476;11.016;2022-10-16T07:38:00;9.70;;;4.90;;
21299;SDS011;10809;49.476;11.016;2022-10-16T07:40:30;9.18;;;5.18;;
21299;SDS011;10809;49.476;11.016;2022-10-16T07:43:01;6.07;;;3.63;;
21299;SDS011;10809;49.476;11.016;2022-10-16T07:45:32;3.03;;;1.70;;
21299;SDS011;10809;49.476;11.016;2022-10-16T07:48:02;5.78;;;1.52;;
21299;SDS011;10809;49.476;11.016;2022-10-16T07:50:33;3.30;;;2.38;;
21299;SDS011;10809;49.476;11.016;2022-10-16T07:53:03;1.42;;;0.82;;
21299;SDS011;10809;49.476;11.016;2022-10-16T07:55:34;0.85;;;0.73;;
21299;SDS011;10809;49.476;11.016;2022-10-16T07:58:04;3.53;;;1.00;;
21299;SDS011;10809;49.476;11.016;2022-10-16T08:00:36;3.42;;;1.20;;
21299;SDS011;10809;49.476;11.016;2022-10-16T08:03:07;1.92;;;1.00;;
21299;SDS011;10809;49.476;11.016;2022-10-16T08:05:38;4.45;;;1.15;;
21299;SDS011;10809;49.476;11.016;2022-10-16T08:08:12;0.82;;;0.60;;
21299;SDS011;10809;49.476;11.016;2022-10-16T08:10:43;1.52;;;1.10;;
21299;SDS011;10809;49.476;11.016;2022-10-16T08:13:15;2.15;;;1.38;;
21299;SDS011;10809;49.476;11.016;2022-10-16T08:15:45;4.18;;;1.67;;
21299;SDS011;10809;49.476;11.016;2022-10-16T08:18:16;3.60;;;1.65;;
21299;SDS011;10809;49.476;11.016;2022-10-16T08:20:46;1.05;;;1.05;;
21299;SDS011;10809;49.476;11.016;2022-10-16T08:23:17;1.77;;;0.98;;
21299;SDS011;10809;49.476;11.016;2022-10-16T08:25:47;2.28;;;1.00;;
21299;SDS011;10809;49.476;11.016;2022-10-16T08:28:17;2.90;;;0.80;;
21299;SDS011;10809;49.476;11.016;2022-10-16T08:30:48;0.90;;;0.90;;
21299;SDS011;10809;49.476;11.016;2022-10-16T08:33:18;1.33;;;0.93;;
21299;SDS011;10809;49.476;11.016;2022-10-16T08:35:52;2.25;;;0.80;;
21299;SDS011;10809;49.476;11.016;2022-10-16T08:38:23;2.47;;;0.85;;
21299;SDS011;10809;49.476;11.016;2022-10-16T08:40:55;1.83;;;1.00;;
21299;SDS011;10809;49.476;11.016;2022-10-16T08:46:41;2.00;;;1.10;;
21299;SDS011;10809;49.476;11.016;2022-10-16T08:49:20;0.90;;;0.90;;
21299;SDS011;10809;49.476;11.016;2022-10-16T08:51:51;2.25;;;0.90;;
21299;SDS011;10809;49.476;11.016;2022-10-16T08:54:32;0.85;;;0.85;;
21299;SDS011;10809;49.476;11.016;2022-10-16T08:57:17;2.80;;;0.70;;
21299;SDS011;10809;49.476;11.016;2022-10-16T08:59:54;2.45;;;0.65;;
21299;SDS011;10809;49.476;11.016;2022-10-16T09:02:46;1.08;;;0.80;;
21299;SDS011;10809;49.476;11.016;2022-10-16T09:05:24;1.52;;;1.00;;
21299;SDS011;10809;49.476;11.016;2022-10-16T09:08:00;0.75;;;0.60;;
21299;SDS011;10809;49.476;11.016;2022-10-16T09:10:51;2.88;;;1.05;;
21299;SDS011;10809;49.476;11.016;2022-10-16T09:21:09;2.03;;;0.63;;
21299;SDS011;10809;49.476;11.016;2022-10-16T09:23:45;3.22;;;0.90;;
21299;SDS011;10809;49.476;11.016;2022-10-16T09:26:17;5.13;;;0.80;;
21299;SDS011;10809;49.476;11.016;2022-10-16T09:28:51;1.50;;;0.90;;
21299;SDS011;10809;49.476;11.016;2022-10-16T09:31:22;0.90;;;0.70;;
21299;SDS011;10809;49.476;11.016;2022-10-16T09:33:54;1.13;;;0.90;;
21299;SDS011;10809;49.476;11.016;2022-10-16T09:36:28;1.98;;;0.95;;
21299;SDS011;10809;49.476;11.016;2022-10-16T09:39:04;6.57;;;1.85;;
21299;SDS011;10809;49.476;11.016;2022-10-16T09:41:41;1.85;;;0.70;;
21299;SDS011;10809;49.476;11.016;2022-10-16T09:47:03;1.30;;;0.88;;
21299;SDS011;10809;49.476;11.016;2022-10-16T09:53:10;4.72;;;0.95;;
21299;SDS011;10809;49.476;11.016;2022-10-16T09:55:49;1.65;;;0.90;;
21299;SDS011;10809;49.476;11.016;2022-10-16T09:58:21;1.00;;;0.90;;
21299;SDS011;10809;49.476;11.016;2022-10-16T10:00:53;2.88;;;1.48;;
21299;SDS011;10809;49.476;11.016;2022-10-16T10:06:13;2.80;;;0.95;;
21299;SDS011;10809;49.476;11.016;2022-10-16T10:08:58;0.90;;;0.90;;
21299;SDS011;10809;49.476;11.016;2022-10-16T10:11:42;1.20;;;0.82;;
21299;SDS011;10809;49.476;11.016;2022-10-16T10:14:17;6.20;;;0.98;;
21299;SDS011;10809;49.476;11.016;2022-10-16T10:19:39;1.20;;;1.10;;
21299;SDS011;10809;49.476;11.016;2022-10-16T10:25:14;7.20;;;0.70;;
21299;SDS011;10809;49.476;11.016;2022-10-16T10:33:21;1.40;;;0.80;;
21299;SDS011;10809;49.476;11.016;2022-10-16T10:36:10;2.15;;;1.10;;
21299;SDS011;10809;49.476;11.016;2022-10-16T10:41:30;1.48;;;0.90;;
21299;SDS011;10809;49.476;11.016;2022-10-16T10:46:55;1.05;;;1.00;;
21299;SDS011;10809;49.476;11.016;2022-10-16T10:49:47;0.95;;;0.85;;
21299;SDS011;10809;49.476;11.016;2022-10-16T10:52:34;1.13;;;1.00;;
21299;SDS011;10809;49.476;11.016;2022-10-16T10:55:13;8.10;;;1.42;;
21299;SDS011;10809;49.476;11.016;2022-10-16T11:06:44;1.00;;;0.93;;
21299;SDS011;10809;49.476;11.016;2022-10-16T11:09:21;1.00;;;0.90;;
21299;SDS011;10809;49.476;11.016;2022-10-16T12:54:41;1.20;;;0.73;;
21299;SDS011;10809;49.476;11.016;2022-10-16T13:14:39;0.85;;;0.50;;
21299;SDS011;10809;49.476;11.016;2022-10-16T13:20:46;0.93;;;0.65;;
21299;SDS011;10809;49.476;11.016;2022-10-16T13:23:36;1.33;;;0.68;;
21299;SDS011;10809;49.476;11.016;2022-10-16T13:28:46;4.63;;;0.77;;
21299;SDS011;10809;49.476;11.016;2022-10-16T13:31:18;3.47;;;0.82;;
21299;SDS011;10809;49.476;11.016;2022-10-16T13:33:52;1.52;;;0.60;;
21299;SDS011;10809;49.476;11.016;2022-10-16T13:36:30;1.48;;;0.70;;
21299;SDS011;10809;49.476;11.016;2022-10-16T13:42:12;3.90;;;1.38;;
21299;SDS011;10809;49.476;11.016;2022-10-16T13:44:49;2.08;;;1.10;;
21299;SDS011;10809;49.476;11.016;2022-10-16T13:47:23;4.03;;;0.52;;
21299;SDS011;10809;49.476;11.016;2022-10-16T13:49:59;2.95;;;0.65;;
21299;SDS011;10809;49.476;11.016;2022-10-16T13:52:39;3.13;;;0.70;;
21299;SDS011;10809;49.476;11.016;2022-10-16T13:55:11;1.75;;;0.80;;
21299;SDS011;10809;49.476;11.016;2022-10-16T13:57:46;1.42;;;0.60;;
21299;SDS011;10809;49.476;11.016;2022-10-16T14:00:17;0.70;;;0.55;;
21299;SDS011;10809;49.476;11.016;2022-10-16T14:03:02;3.00;;;0.60;;
21299;SDS011;10809;49.476;11.016;2022-10-16T14:05:35;1.05;;;0.77;;
21299;SDS011;10809;49.476;11.016;2022-10-16T14:08:09;0.50;;;0.50;;
21299;SDS011;10809;49.476;11.016;2022-10-16T14:10:48;0.57;;;0.57;;
21299;SDS011;10809;49.476;11.016;2022-10-16T14:13:25;2.42;;;0.60;;
21299;SDS011;10809;49.476;11.016;2022-10-16T14:16:02;0.70;;;0.70;;
21299;SDS011;10809;49.476;11.016;2022-10-16T14:18:38;2.53;;;0.52;;
21299;SDS011;10809;49.476;11.016;2022-10-16T14:21:12;0.93;;;0.50;;
21299;SDS011;10809;49.476;11.016;2022-10-16T14:23:44;1.55;;;0.47;;
21299;SDS011;10809;49.476;11.016;2022-10-16T14:26:16;0.95;;;0.47;;
21299;SDS011;10809;49.476;11.016;2022-10-16T14:28:49;0.50;;;0.50;;
21299;SDS011;10809;49.476;11.016;2022-10-16T14:31:33;1.85;;;0.38;;
21299;SDS011;10809;49.476;11.016;2022-10-16T14:34:22;0.63;;;0.50;;
21299;SDS011;10809;49.476;11.016;2022-10-16T14:36:54;1.02;;;0.50;;
21299;SDS011;10809;49.476;11.016;2022-10-16T14:39:25;0.77;;;0.60;;
21299;SDS011;10809;49.476;11.016;2022-10-16T14:41:56;0.95;;;0.90;;
21299;SDS011;10809;49.476;11.016;2022-10-16T14:44:29;2.38;;;0.30;;
21299;SDS011;10809;49.476;11.016;2022-10-16T14:47:09;1.02;;;0.40;;
21299;SDS011;10809;49.476;11.016;2022-10-16T14:49:44;4.32;;;0.90;;
21299;SDS011;10809;49.476;11.016;2022-10-16T14:52:14;0.75;;;0.50;;
21299;SDS011;10809;49.476;11.016;2022-10-16T14:54:47;0.60;;;0.55;;
21299;SDS011;10809;49.476;11.016;2022-10-16T14:57:19;0.40;;;0.40;;
21299;SDS011;10809;49.476;11.016;2022-10-16T14:59:52;0.70;;;0.70;;
21299;SDS011;10809;49.476;11.016;2022-10-16T15:02:30;0.63;;;0.63;;
21299;SDS011;10809;49.476;11.016;2022-10-16T15:05:10;0.70;;;0.70;;
21299;SDS011;10809;49.476;11.016;2022-10-16T15:07:41;6.68;;;1.58;;
21299;SDS011;10809;49.476;11.016;2022-10-16T15:10:26;1.92;;;0.57;;
21299;SDS011;10809;49.476;11.016;2022-10-16T15:13:10;1.15;;;0.95;;
21299;SDS011;10809;49.476;11.016;2022-10-16T15:15:43;0.40;;;0.40;;
21299;SDS011;10809;49.476;11.016;2022-10-16T15:18:15;1.58;;;0.40;;
21299;SDS011;10809;49.476;11.016;2022-10-16T15:20:50;0.50;;;0.50;;
21299;SDS011;10809;49.476;11.016;2022-10-16T15:23:21;1.17;;;0.60;;
21299;SDS011;10809;49.476;11.016;2022-10-16T15:25:53;0.88;;;0.50;;
21299;SDS011;10809;49.476;11.016;2022-10-16T15:28:24;0.68;;;0.60;;
21299;SDS011;10809;49.476;11.016;2022-10-16T15:30:55;2.83;;;1.08;;
21299;SDS011;10809;49.476;11.016;2022-10-16T15:33:27;2.60;;;0.90;;
21299;SDS011;10809;49.476;11.016;2022-10-16T15:36:00;2.67;;;1.17;;
21299;SDS011;10809;49.476;11.016;2022-10-16T15:38:31;1.73;;;1.63;;
21299;SDS011;10809;49.476;11.016;2022-10-16T15:41:02;1.95;;;1.05;;
21299;SDS011;10809;49.476;11.016;2022-10-16T15:43:32;12.02;;;1.58;;
21299;SDS011;10809;49.476;11.016;2022-10-16T15:46:04;1.20;;;0.80;;
21299;SDS011;10809;49.476;11.016;2022-10-16T15:48:36;0.43;;;0.40;;
21299;SDS011;10809;49.476;11.016;2022-10-16T15:51:07;2.78;;;0.80;;
21299;SDS011;10809;49.476;11.016;2022-10-16T15:53:38;0.95;;;0.65;;
21299;SDS011;10809;49.476;11.016;2022-10-16T15:56:09;1.00;;;0.70;;
21299;SDS011;10809;49.476;11.016;2022-10-16T15:58:42;3.85;;;1.13;;
21299;SDS011;10809;49.476;11.016;2022-10-16T16:01:13;2.47;;;1.02;;
21299;SDS011;10809;49.476;11.016;2022-10-16T16:03:43;2.25;;;0.88;;
21299;SDS011;10809;49.476;11.016;2022-10-16T16:06:14;1.35;;;0.70;;
21299;SDS011;10809;49.476;11.016;2022-10-16T16:08:45;3.33;;;0.82;;
21299;SDS011;10809;49.476;11.016;2022-10-16T16:11:33;2.92;;;0.80;;
21299;SDS011;10809;49.476;11.016;2022-10-16T16:14:08;1.45;;;0.88;;
21299;SDS011;10809;49.476;11.016;2022-10-16T16:16:42;0.82;;;0.82;;
21299;SDS011;10809;49.476;11.016;2022-10-16T16:19:13;1.27;;;0.70;;
21299;SDS011;10809;49.476;11.016;2022-10-16T16:21:46;6.07;;;1.20;;
21299;SDS011;10809;49.476;11.016;2022-10-16T16:24:17;1.95;;;0.77;;
21299;SDS011;10809;49.476;11.016;2022-10-16T16:26:47;2.03;;;1.10;;
21299;SDS011;10809;49.476;11.016;2022-10-16T16:29:18;1.48;;;0.90;;
21299;SDS011;10809;49.476;11.016;2022-10-16T16:31:48;2.30;;;1.15;;
21299;SDS011;10809;49.476;11.016;2022-10-16T16:34:19;3.78;;;1.20;;
21299;SDS011;10809;49.476;11.016;2022-10-16T16:36:49;1.88;;;0.90;;
21299;SDS011;10809;49.476;11.016;2022-10-16T16:39:21;2.33;;;1.20;;
21299;SDS011;10809;49.476;11.016;2022-10-16T16:41:52;1.50;;;0.90;;
21299;SDS011;10809;49.476;11.016;2022-10-16T16:44:22;4.25;;;1.30;;
21299;SDS011;10809;49.476;11.016;2022-10-16T16:46:52;1.02;;;0.80;;
21299;SDS011;10809;49.476;11.016;2022-10-16T16:49:24;1.23;;;0.95;;
21299;SDS011;10809;49.476;11.016;2022-10-16T16:51:54;5.00;;;1.48;;
21299;SDS011;10809;49.476;11.016;2022-10-16T16:54:25;1.70;;;1.35;;
21299;SDS011;10809;49.476;11.016;2022-10-16T16:56:55;1.60;;;1.48;;
21299;SDS011;10809;49.476;11.016;2022-10-16T16:59:26;1.30;;;1.20;;
21299;SDS011;10809;49.476;11.016;2022-10-16T17:01:56;1.45;;;1.35;;
21299;SDS011;10809;49.476;11.016;2022-10-16T17:04:27;2.17;;;1.65;;
21299;SDS011;10809;49.476;11.016;2022-10-16T17:06:57;4.60;;;1.83;;
21299;SDS011;10809;49.476;11.016;2022-10-16T17:09:28;2.17;;;1.30;;
21299;SDS011;10809;49.476;11.016;2022-10-16T17:11:59;3.08;;;1.75;;
21299;SDS011;10809;49.476;11.016;2022-10-16T17:14:29;2.88;;;1.60;;
21299;SDS011;10809;49.476;11.016;2022-10-16T17:16:59;4.00;;;2.42;;
21299;SDS011;10809;49.476;11.016;2022-10-16T17:19:30;2.88;;;2.58;;
21299;SDS011;10809;49.476;11.016;2022-10-16T17:22:00;6.45;;;2.78;;
21299;SDS011;10809;49.476;11.016;2022-10-16T17:24:31;7.18;;;2.53;;
21299;SDS011;10809;49.476;11.016;2022-10-16T17:27:01;3.05;;;2.05;;
21299;SDS011;10809;49.476;11.016;2022-10-16T17:29:31;2.72;;;2.40;;
21299;SDS011;10809;49.476;11.016;2022-10-16T17:32:02;4.88;;;2.63;;
21299;SDS011;10809;49.476;11.016;2022-10-16T17:34:33;3.78;;;2.00;;
21299;SDS011;10809;49.476;11.016;2022-10-16T17:37:04;3.47;;;2.85;;
21299;SDS011;10809;49.476;11.016;2022-10-16T17:39:34;2.80;;;2.13;;
21299;SDS011;10809;49.476;11.016;2022-10-16T17:42:05;2.25;;;1.38;;
21299;SDS011;10809;49.476;11.016;2022-10-16T17:44:35;3.83;;;2.28;;
21299;SDS011;10809;49.476;11.016;2022-10-16T17:47:06;3.03;;;1.63;;
21299;SDS011;10809;49.476;11.016;2022-10-16T17:49:36;2.20;;;2.00;;
21299;SDS011;10809;49.476;11.016;2022-10-16T17:52:06;1.83;;;1.67;;
21299;SDS011;10809;49.476;11.016;2022-10-16T17:54:37;4.32;;;2.20;;
21299;SDS011;10809;49.476;11.016;2022-10-16T17:57:08;4.40;;;2.17;;
21299;SDS011;10809;49.476;11.016;2022-10-16T17:59:39;5.10;;;2.45;;
21299;SDS011;10809;49.476;11.016;2022-10-16T18:02:09;1.98;;;1.73;;
21299;SDS011;10809;49.476;11.016;2022-10-16T18:04:40;3.58;;;2.22;;
21299;SDS011;10809;49.476;11.016;2022-10-16T18:07:10;8.35;;;1.85;;
21299;SDS011;10809;49.476;11.016;2022-10-16T18:09:42;3.55;;;2.05;;
21299;SDS011;10809;49.476;11.016;2022-10-16T18:12:12;4.75;;;2.42;;
21299;SDS011;10809;49.476;11.016;2022-10-16T18:14:42;2.88;;;2.28;;
21299;SDS011;10809;49.476;11.016;2022-10-16T18:17:13;2.55;;;2.28;;
21299;SDS011;10809;49.476;11.016;2022-10-16T18:19:45;5.57;;;2.10;;
21299;SDS011;10809;49.476;11.016;2022-10-16T18:22:15;2.88;;;2.38;;
21299;SDS011;10809;49.476;11.016;2022-10-16T18:24:46;3.10;;;2.13;;
21299;SDS011;10809;49.476;11.016;2022-10-16T18:27:16;1.85;;;1.70;;
21299;SDS011;10809;49.476;11.016;2022-10-16T18:29:47;2.25;;;1.63;;
21299;SDS011;10809;49.476;11.016;2022-10-16T18:32:17;4.80;;;1.90;;
21299;SDS011;10809;49.476;11.016;2022-10-16T18:34:47;3.65;;;2.13;;
21299;SDS011;10809;49.476;11.016;2022-10-16T18:37:18;4.03;;;2.10;;
21299;SDS011;10809;49.476;11.016;2022-10-16T18:39:49;3.78;;;1.88;;
21299;SDS011;10809;49.476;11.016;2022-10-16T18:42:19;6.07;;;2.03;;
21299;SDS011;10809;49.476;11.016;2022-10-16T18:44:49;3.10;;;2.28;;
21299;SDS011;10809;49.476;11.016;2022-10-16T18:47:20;3.22;;;1.95;;
21299;SDS011;10809;49.476;11.016;2022-10-16T18:49:50;2.63;;;1.67;;
21299;SDS011;10809;49.476;11.016;2022-10-16T18:52:21;6.70;;;1.92;;
21299;SDS011;10809;49.476;11.016;2022-10-16T18:54:54;1.85;;;1.65;;
21299;SDS011;10809;49.476;11.016;2022-10-16T18:57:26;2.78;;;2.08;;
21299;SDS011;10809;49.476;11.016;2022-10-16T18:59:58;3.53;;;1.75;;
21299;SDS011;10809;49.476;11.016;2022-10-16T19:02:29;3.67;;;1.85;;
21299;SDS011;10809;49.476;11.016;2022-10-16T19:04:59;1.58;;;1.45;;
21299;SDS011;10809;49.476;11.016;2022-10-16T19:07:29;3.78;;;1.95;;
21299;SDS011;10809;49.476;11.016;2022-10-16T19:10:00;4.65;;;1.95;;
21299;SDS011;10809;49.476;11.016;2022-10-16T19:12:30;5.22;;;1.80;;
21299;SDS011;10809;49.476;11.016;2022-10-16T19:15:00;2.47;;;1.92;;
21299;SDS011;10809;49.476;11.016;2022-10-16T19:17:31;2.58;;;1.50;;
21299;SDS011;10809;49.476;11.016;2022-10-16T19:20:01;2.38;;;1.70;;
21299;SDS011;10809;49.476;11.016;2022-10-16T19:22:33;2.28;;;1.60;;
21299;SDS011;10809;49.476;11.016;2022-10-16T19:25:22;3.60;;;1.60;;
21299;SDS011;10809;49.476;11.016;2022-10-16T19:27:53;2.78;;;1.70;;
21299;SDS011;10809;49.476;11.016;2022-10-16T19:30:24;5.78;;;2.20;;
21299;SDS011;10809;49.476;11.016;2022-10-16T19:32:54;2.38;;;2.00;;
21299;SDS011;10809;49.476;11.016;2022-10-16T19:35:24;3.00;;;1.85;;
21299;SDS011;10809;49.476;11.016;2022-10-16T19:37:55;1.85;;;1.67;;
21299;SDS011;10809;49.476;11.016;2022-10-16T19:40:26;4.45;;;1.98;;
21299;SDS011;10809;49.476;11.016;2022-10-16T19:42:57;2.33;;;1.80;;
21299;SDS011;10809;49.476;11.016;2022-10-16T19:45:27;4.72;;;1.90;;
21299;SDS011;10809;49.476;11.016;2022-10-16T19:47:58;3.50;;;1.70;;
21299;SDS011;10809;49.476;11.016;2022-10-16T19:50:28;4.75;;;2.30;;
21299;SDS011;10809;49.476;11.016;2022-10-16T19:52:58;3.90;;;2.10;;
21299;SDS011;10809;49.476;11.016;2022-10-16T19:55:29;2.85;;;2.00;;
21299;SDS011;10809;49.476;11.016;2022-10-16T19:58:00;7.82;;;1.75;;
21299;SDS011;10809;49.476;11.016;2022-10-16T20:00:31;4.93;;;2.55;;
21299;SDS011;10809;49.476;11.016;2022-10-16T20:03:01;3.15;;;1.85;;
21299;SDS011;10809;49.476;11.016;2022-10-16T20:05:32;2.72;;;2.15;;
21299;SDS011;10809;49.476;11.016;2022-10-16T20:08:03;2.33;;;1.90;;
21299;SDS011;10809;49.476;11.016;2022-10-16T20:10:33;3.58;;;2.40;;
21299;SDS011;10809;49.476;11.016;2022-10-16T20:13:04;3.53;;;2.55;;
21299;SDS011;10809;49.476;11.016;2022-10-16T20:15:37;4.13;;;2.33;;
21299;SDS011;10809;49.476;11.016;2022-10-16T20:18:07;7.88;;;2.17;;
21299;SDS011;10809;49.476;11.016;2022-10-16T20:20:38;8.20;;;1.88;;
21299;SDS011;10809;49.476;11.016;2022-10-16T20:23:10;3.33;;;2.25;;
21299;SDS011;10809;49.476;11.016;2022-10-16T20:25:41;6.70;;;2.28;;
21299;SDS011;10809;49.476;11.016;2022-10-16T20:28:15;7.28;;;2.03;;
21299;SDS011;10809;49.476;11.016;2022-10-16T20:30:48;2.67;;;1.67;;
21299;SDS011;10809;49.476;11.016;2022-10-16T20:33:19;5.35;;;2.03;;
21299;SDS011;10809;49.476;11.016;2022-10-16T20:35:50;7.55;;;1.70;;
21299;SDS011;10809;49.476;11.016;2022-10-16T20:38:20;2.50;;;1.60;;
21299;SDS011;10809;49.476;11.016;2022-10-16T20:40:50;4.03;;;1.58;;
21299;SDS011;10809;49.476;11.016;2022-10-16T20:43:21;4.00;;;1.75;;
21299;SDS011;10809;49.476;11.016;2022-10-16T20:45:58;5.68;;;1.77;;
21299;SDS011;10809;49.476;11.016;2022-10-16T20:48:29;2.00;;;1.80;;
21299;SDS011;10809;49.476;11.016;2022-10-16T20:51:09;3.35;;;1.80;;
21299;SDS011;10809;49.476;11.016;2022-10-16T20:53:41;3.05;;;1.83;;
21299;SDS011;10809;49.476;11.016;2022-10-16T20:56:14;3.03;;;2.63;;
21299;SDS011;10809;49.476;11.016;2022-10-16T20:58:46;3.13;;;1.95;;
21299;SDS011;10809;49.476;11.016;2022-10-16T21:01:18;2.55;;;2.05;;
21299;SDS011;10809;49.476;11.016;2022-10-16T21:03:52;3.60;;;3.30;;
21299;SDS011;10809;49.476;11.016;2022-10-16T21:06:24;3.67;;;2.60;;
21299;SDS011;10809;49.476;11.016;2022-10-16T21:08:55;7.90;;;2.75;;
21299;SDS011;10809;49.476;11.016;2022-10-16T21:11:25;3.33;;;2.70;;
21299;SDS011;10809;49.476;11.016;2022-10-16T21:13:57;5.53;;;2.75;;
21299;SDS011;10809;49.476;11.016;2022-10-16T21:16:29;6.00;;;2.63;;
21299;SDS011;10809;49.476;11.016;2022-10-16T21:19:00;6.60;;;2.80;;
21299;SDS011;10809;49.476;11.016;2022-10-16T21:21:32;2.65;;;2.45;;
21299;SDS011;10809;49.476;11.016;2022-10-16T21:24:04;3.50;;;2.50;;
21299;SDS011;10809;49.476;11.016;2022-10-16T21:26:36;2.85;;;2.63;;
21299;SDS011;10809;49.476;11.016;2022-10-16T21:29:06;3.20;;;2.20;;
21299;SDS011;10809;49.476;11.016;2022-10-16T21:31:37;2.80;;;2.10;;
21299;SDS011;10809;49.476;11.016;2022-10-16T21:34:07;5.43;;;2.33;;
21299;SDS011;10809;49.476;11.016;2022-10-16T21:36:38;3.92;;;2.30;;
21299;SDS011;10809;49.476;11.016;2022-10-16T21:39:15;3.97;;;2.22;;
21299;SDS011;10809;49.476;11.016;2022-10-16T21:41:48;3.30;;;2.20;;
21299;SDS011;10809;49.476;11.016;2022-10-16T21:44:19;8.77;;;1.98;;
21299;SDS011;10809;49.476;11.016;2022-10-16T21:46:49;7.03;;;2.45;;
21299;SDS011;10809;49.476;11.016;2022-10-16T21:49:20;4.07;;;2.20;;
21299;SDS011;10809;49.476;11.016;2022-10-16T21:51:50;8.32;;;2.50;;
21299;SDS011;10809;49.476;11.016;2022-10-16T21:54:21;6.22;;;2.70;;
21299;SDS011;10809;49.476;11.016;2022-10-16T21:56:53;3.70;;;2.40;;
21299;SDS011;10809;49.476;11.016;2022-10-16T21:59:23;2.88;;;1.92;;
21299;SDS011;10809;49.476;11.016;2022-10-16T22:01:53;4.07;;;2.05;;
21299;SDS011;10809;49.476;11.016;2022-10-16T22:04:24;3.35;;;2.25;;
21299;SDS011;10809;49.476;11.016;2022-10-16T22:06:54;7.63;;;1.88;;
21299;SDS011;10809;49.476;11.016;2022-10-16T22:09:25;11.88;;;2.80;;
21299;SDS011;10809;49.476;11.016;2022-10-16T22:11:55;4.55;;;2.20;;
21299;SDS011;10809;49.476;11.016;2022-10-16T22:14:25;2.40;;;2.20;;
21299;SDS011;10809;49.476;11.016;2022-10-16T22:16:56;4.90;;;1.55;;
21299;SDS011;10809;49.476;11.016;2022-10-16T22:19:26;2.17;;;1.98;;
21299;SDS011;10809;49.476;11.016;2022-10-16T22:21:57;3.63;;;1.60;;
21299;SDS011;10809;49.476;11.016;2022-10-16T22:24:29;3.50;;;2.50;;
21299;SDS011;10809;49.476;11.016;2022-10-16T22:27:00;6.32;;;2.65;;
21299;SDS011;10809;49.476;11.016;2022-10-16T22:29:30;4.45;;;1.98;;
21299;SDS011;10809;49.476;11.016;2022-10-16T22:32:00;8.68;;;2.00;;
21299;SDS011;10809;49.476;11.016;2022-10-16T22:34:31;2.23;;;1.77;;
21299;SDS011;10809;49.476;11.016;2022-10-16T22:37:01;3.28;;;1.55;;
21299;SDS011;10809;49.476;11.016;2022-10-16T22:39:31;4.05;;;1.75;;
21299;SDS011;10809;49.476;11.016;2022-10-16T22:42:02;2.00;;;1.80;;
21299;SDS011;10809;49.476;11.016;2022-10-16T22:44:32;2.33;;;1.47;;
21299;SDS011;10809;49.476;11.016;2022-10-16T22:47:03;7.47;;;1.80;;
21299;SDS011;10809;49.476;11.016;2022-10-16T22:49:33;2.60;;;1.80;;
21299;SDS011;10809;49.476;11.016;2022-10-16T22:52:03;2.90;;;1.97;;
21299;SDS011;10809;49.476;11.016;2022-10-16T22:54:34;3.93;;;1.70;;
21299;SDS011;10809;49.476;11.016;2022-10-16T22:57:04;1.98;;;1.58;;
21299;SDS011;10809;49.476;11.016;2022-10-16T22:59:34;3.42;;;1.77;;
21299;SDS011;10809;49.476;11.016;2022-10-16T23:02:05;5.10;;;1.70;;
21299;SDS011;10809;49.476;11.016;2022-10-16T23:04:35;3.25;;;1.52;;
21299;SDS011;10809;49.476;11.016;2022-10-16T23:07:06;3.90;;;1.58;;
21299;SDS011;10809;49.476;11.016;2022-10-16T23:09:36;4.10;;;1.52;;
